createdAt,value
2022-09-28T00:00:05.140Z,2.13
2022-09-28T00:02:42.043Z,2.10
2022-09-28T00:05:13.945Z,2.13
2022-09-28T00:07:43.974Z,1.98
2022-09-28T00:10:14.046Z,2.00
2022-09-28T00:12:43.991Z,2.00
2022-09-28T00:15:13.965Z,2.15
2022-09-28T00:17:46.192Z,1.90
2022-09-28T00:20:17.920Z,2.33
2022-09-28T00:22:47.918Z,1.70
2022-09-28T00:25:18.201Z,2.40
2022-09-28T00:27:52.366Z,2.03
2022-09-28T00:30:22.428Z,2.13
2022-09-28T00:32:52.495Z,2.10
2022-09-28T00:35:22.493Z,2.10
2022-09-28T00:37:53.345Z,2.05
2022-09-28T00:40:23.402Z,2.10
2022-09-28T00:42:53.363Z,2.05
2022-09-28T00:45:25.118Z,2.25
2022-09-28T00:47:57.421Z,2.08
2022-09-28T00:50:36.919Z,2.10
2022-09-28T00:53:13.030Z,1.98
2022-09-28T00:55:47.386Z,1.90
2022-09-28T00:58:23.286Z,2.50
2022-09-28T01:00:53.417Z,2.13
2022-09-28T01:03:23.874Z,2.63
2022-09-28T01:05:54.512Z,2.30
2022-09-28T01:08:24.570Z,2.10
2022-09-28T01:10:54.654Z,2.28
2022-09-28T01:13:25.007Z,2.15
2022-09-28T01:16:16.843Z,2.13
2022-09-28T01:19:05.971Z,2.28
2022-09-28T01:21:54.278Z,2.30
2022-09-28T01:24:47.156Z,2.10
2022-09-28T01:27:20.132Z,2.20
2022-09-28T01:30:06.512Z,2.00
2022-09-28T01:32:43.088Z,2.30
2022-09-28T01:35:20.595Z,2.10
2022-09-28T01:38:04.932Z,2.30
2022-09-28T01:40:35.156Z,2.42
2022-09-28T01:43:16.566Z,2.42
2022-09-28T01:45:51.611Z,2.17
2022-09-28T01:48:28.987Z,2.00
2022-09-28T01:51:01.064Z,2.28
2022-09-28T01:53:46.528Z,2.22
2022-09-28T01:56:31.524Z,2.08
2022-09-28T01:59:18.052Z,2.05
2022-09-28T02:01:58.240Z,2.10
2022-09-28T02:04:30.596Z,2.40
2022-09-28T02:07:02.743Z,1.88
2022-09-28T02:09:53.407Z,2.35
2022-09-28T02:12:31.360Z,2.10
2022-09-28T02:15:07.006Z,2.03
2022-09-28T02:17:37.057Z,2.20
2022-09-28T02:20:07.666Z,2.10
2022-09-28T02:22:51.469Z,2.28
2022-09-28T02:25:30.659Z,1.98
2022-09-28T02:28:02.926Z,1.90
2022-09-28T02:30:33.506Z,1.90
2022-09-28T02:33:20.729Z,2.10
2022-09-28T02:35:50.884Z,2.03
2022-09-28T02:38:22.546Z,1.90
2022-09-28T02:41:07.929Z,2.00
2022-09-28T02:43:53.313Z,1.80
2022-09-28T02:46:43.653Z,1.90
2022-09-28T02:49:30.500Z,1.90
2022-09-28T02:52:12.444Z,1.90
2022-09-28T02:54:56.049Z,2.03
2022-09-28T03:00:19.331Z,1.98
2022-09-28T03:03:03.217Z,1.85
2022-09-28T03:05:54.126Z,1.85
2022-09-28T03:08:44.816Z,2.13
2022-09-28T03:11:36.976Z,1.80
2022-09-28T03:14:07.297Z,1.90
2022-09-28T03:16:46.886Z,1.98
2022-09-28T03:19:18.725Z,1.88
2022-09-28T03:21:48.988Z,1.63
2022-09-28T03:24:19.044Z,1.70
2022-09-28T03:26:49.042Z,1.70
2022-09-28T03:29:21.616Z,2.03
2022-09-28T03:31:57.940Z,1.90
2022-09-28T03:34:28.032Z,1.85
2022-09-28T03:36:58.296Z,1.45
2022-09-28T03:39:28.366Z,1.80
2022-09-28T03:41:58.622Z,2.20
2022-09-28T03:44:28.796Z,1.80
2022-09-28T03:46:58.804Z,1.92
2022-09-28T03:49:28.865Z,1.90
2022-09-28T03:51:58.892Z,1.90
2022-09-28T03:54:28.849Z,2.20
2022-09-28T03:56:59.020Z,1.80
2022-09-28T03:59:29.076Z,1.98
2022-09-28T04:01:59.156Z,1.88
2022-09-28T04:04:29.164Z,1.85
2022-09-28T04:07:00.055Z,1.58
2022-09-28T04:09:30.745Z,1.83
2022-09-28T04:12:04.335Z,1.67
2022-09-28T04:14:35.808Z,1.80
2022-09-28T04:17:09.278Z,1.65
2022-09-28T04:19:39.819Z,1.88
2022-09-28T04:22:23.147Z,1.90
2022-09-28T04:24:54.021Z,2.08
2022-09-28T04:27:42.610Z,2.13
2022-09-28T04:30:13.626Z,1.95
2022-09-28T04:32:50.002Z,1.92
2022-09-28T04:35:20.364Z,2.35
2022-09-28T04:37:50.579Z,1.90
2022-09-28T04:40:20.616Z,1.80
2022-09-28T04:42:57.241Z,1.85
2022-09-28T04:45:28.657Z,1.70
2022-09-28T04:48:07.477Z,1.85
2022-09-28T04:51:06.736Z,1.80
2022-09-28T04:53:36.691Z,1.80
2022-09-28T04:56:10.095Z,1.63
2022-09-28T04:58:41.263Z,1.70
2022-09-28T05:01:14.632Z,1.95
2022-09-28T05:04:10.914Z,2.00
2022-09-28T05:07:00.998Z,1.90
2022-09-28T05:09:33.932Z,1.80
2022-09-28T05:12:06.415Z,1.60
2022-09-28T05:14:36.421Z,1.90
2022-09-28T05:17:07.126Z,1.70
2022-09-28T05:19:52.099Z,1.80
2022-09-28T05:22:22.064Z,1.75
2022-09-28T05:24:52.118Z,2.05
2022-09-28T05:27:22.529Z,1.75
2022-09-28T05:30:02.137Z,1.60
2022-09-28T05:32:47.158Z,1.85
2022-09-28T05:35:53.781Z,1.80
2022-09-28T05:38:24.514Z,1.63
2022-09-28T05:40:54.665Z,2.08
2022-09-28T05:43:24.927Z,1.80
2022-09-28T05:45:55.979Z,1.70
2022-09-28T05:48:26.057Z,2.08
2022-09-28T05:50:56.151Z,1.70
2022-09-28T05:53:26.223Z,1.80
2022-09-28T05:56:00.609Z,1.90
2022-09-28T05:58:33.144Z,1.95
2022-09-28T06:01:03.157Z,2.00
2022-09-28T06:03:33.521Z,2.10
2022-09-28T06:06:03.985Z,1.90
2022-09-28T06:08:34.804Z,2.28
2022-09-28T06:11:30.884Z,2.05
2022-09-28T06:14:02.768Z,2.05
2022-09-28T06:16:39.273Z,1.80
2022-09-28T06:19:12.861Z,1.80
2022-09-28T06:22:00.827Z,1.88
2022-09-28T06:24:31.276Z,2.10
2022-09-28T06:27:01.306Z,1.83
2022-09-28T06:29:31.320Z,1.80
2022-09-28T06:32:01.356Z,1.85
2022-09-28T06:34:31.516Z,1.92
2022-09-28T06:37:01.840Z,2.20
2022-09-28T06:39:32.070Z,2.13
2022-09-28T06:42:04.456Z,2.22
2022-09-28T06:44:54.442Z,2.75
2022-09-28T06:47:35.075Z,2.40
2022-09-28T06:50:20.526Z,2.40
2022-09-28T06:53:10.622Z,1.75
2022-09-28T06:56:19.228Z,2.10
2022-09-28T06:58:49.793Z,2.10
2022-09-28T07:01:20.265Z,2.30
2022-09-28T07:04:10.469Z,2.45
2022-09-28T07:07:00.329Z,2.30
2022-09-28T07:09:58.679Z,2.10
2022-09-28T07:12:46.077Z,2.38
2022-09-28T07:15:44.940Z,2.40
2022-09-28T07:18:19.061Z,2.47
2022-09-28T07:20:54.127Z,2.35
2022-09-28T07:23:25.183Z,2.40
2022-09-28T07:26:13.584Z,2.40
2022-09-28T07:28:56.932Z,2.25
2022-09-28T07:31:55.461Z,2.30
2022-09-28T07:34:58.928Z,2.70
2022-09-28T07:37:50.608Z,2.22
2022-09-28T07:40:53.729Z,2.10
2022-09-28T07:43:24.069Z,3.08
2022-09-28T07:45:57.742Z,2.63
2022-09-28T07:48:28.287Z,2.65
2022-09-28T07:50:58.635Z,2.70
2022-09-28T07:53:42.077Z,2.33
2022-09-28T07:56:21.521Z,1.85
2022-09-28T07:59:06.819Z,2.20
2022-09-28T08:01:43.702Z,2.35
2022-09-28T08:04:16.803Z,2.10
2022-09-28T08:06:49.705Z,2.42
2022-09-28T08:09:21.379Z,1.92
2022-09-28T08:12:10.953Z,2.08
2022-09-28T08:14:55.187Z,2.03
2022-09-28T08:18:02.851Z,2.00
2022-09-28T08:20:52.261Z,1.95
2022-09-28T08:23:22.675Z,2.17
2022-09-28T08:25:55.141Z,2.28
2022-09-28T08:28:27.566Z,2.20
2022-09-28T08:31:04.822Z,2.00
2022-09-28T08:33:36.088Z,1.90
2022-09-28T08:36:45.632Z,2.20
2022-09-28T08:39:45.593Z,2.30
2022-09-28T08:42:46.967Z,2.40
2022-09-28T08:45:48.110Z,2.20
2022-09-28T08:49:06.612Z,1.85
2022-09-28T08:52:39.373Z,2.08
2022-09-28T08:55:32.382Z,2.33
2022-09-28T08:58:43.768Z,2.95
2022-09-28T09:01:17.594Z,2.80
2022-09-28T09:03:48.926Z,1.90
2022-09-28T09:07:11.944Z,2.35
2022-09-28T09:09:58.746Z,2.10
2022-09-28T09:13:04.663Z,1.88
2022-09-28T09:15:49.362Z,2.15
2022-09-28T09:18:51.072Z,2.13
2022-09-28T09:22:02.794Z,2.70
2022-09-28T09:24:56.868Z,2.90
2022-09-28T09:27:38.762Z,2.83
2022-09-28T09:30:21.047Z,2.88
2022-09-28T09:33:26.652Z,2.00
2022-09-28T09:36:34.912Z,2.55
2022-09-28T09:39:35.025Z,2.58
2022-09-28T09:42:36.337Z,2.92
2022-09-28T09:45:56.904Z,2.75
2022-09-28T09:49:07.088Z,2.40
2022-09-28T09:52:06.296Z,2.72
2022-09-28T09:54:57.341Z,2.33
2022-09-28T09:57:52.506Z,2.35
2022-09-28T10:00:48.259Z,2.38
2022-09-28T10:03:50.661Z,2.60
2022-09-28T10:06:29.275Z,2.70
2022-09-28T10:09:12.300Z,2.53
2022-09-28T10:11:45.947Z,2.47
2022-09-28T10:14:25.276Z,2.30
2022-09-28T10:17:04.046Z,2.70
2022-09-28T10:19:58.156Z,2.28
2022-09-28T10:22:29.420Z,2.25
2022-09-28T10:25:01.747Z,2.50
2022-09-28T10:27:33.768Z,2.40
2022-09-28T10:30:13.878Z,2.38
2022-09-28T10:32:46.131Z,2.40
2022-09-28T10:35:23.257Z,2.30
2022-09-28T10:38:09.154Z,2.10
2022-09-28T10:40:52.680Z,2.00
2022-09-28T10:44:07.241Z,2.58
2022-09-28T10:46:42.999Z,1.90
2022-09-28T10:49:20.300Z,2.70
2022-09-28T10:51:57.381Z,2.53
2022-09-28T10:54:32.105Z,1.88
2022-09-28T10:57:03.274Z,2.47
2022-09-28T10:59:43.343Z,2.35
2022-09-28T11:02:26.087Z,2.20
2022-09-28T11:05:01.991Z,2.20
2022-09-28T11:07:47.852Z,2.30
2022-09-28T11:10:34.281Z,2.22
2022-09-28T11:13:29.970Z,2.20
2022-09-28T11:16:07.350Z,2.15
2022-09-28T11:18:40.797Z,2.08
2022-09-28T11:21:17.771Z,2.13
2022-09-28T11:24:08.607Z,2.13
2022-09-28T11:26:45.270Z,2.67
2022-09-28T11:29:37.616Z,2.15
2022-09-28T11:32:41.062Z,2.00
2022-09-28T11:35:40.449Z,2.20
2022-09-28T11:38:19.310Z,1.90
2022-09-28T11:41:49.214Z,2.15
2022-09-28T11:44:37.430Z,2.38
2022-09-28T11:47:41.869Z,2.10
2022-09-28T11:50:28.006Z,1.98
2022-09-28T11:52:57.877Z,2.50
2022-09-28T11:55:45.686Z,2.10
2022-09-28T11:58:23.629Z,2.42
2022-09-28T12:01:01.228Z,2.10
2022-09-28T12:03:47.183Z,1.90
2022-09-28T12:06:21.497Z,2.40
2022-09-28T12:09:01.988Z,2.05
2022-09-28T12:12:02.837Z,2.10
2022-09-28T12:14:46.166Z,1.90
2022-09-28T12:17:34.700Z,2.17
2022-09-28T12:20:18.992Z,2.38
2022-09-28T12:23:01.176Z,2.20
2022-09-28T12:25:34.773Z,2.10
2022-09-28T12:28:08.235Z,2.25
2022-09-28T12:30:41.591Z,2.10
2022-09-28T12:33:16.556Z,2.30
2022-09-28T12:36:11.896Z,2.35
2022-09-28T12:39:18.169Z,2.15
2022-09-28T12:41:59.669Z,1.92
2022-09-28T12:44:33.968Z,2.40
2022-09-28T12:47:37.995Z,2.22
2022-09-28T12:53:21.942Z,2.13
2022-09-28T12:56:17.928Z,2.22
2022-09-28T12:58:51.672Z,2.55
2022-09-28T13:01:33.721Z,2.38
2022-09-28T13:04:41.999Z,1.88
2022-09-28T13:07:22.699Z,2.15
2022-09-28T13:10:22.851Z,2.20
2022-09-28T13:13:14.527Z,2.00
2022-09-28T13:15:57.853Z,2.20
2022-09-28T13:18:36.497Z,2.40
2022-09-28T13:21:08.340Z,2.30
2022-09-28T13:23:47.715Z,2.30
2022-09-28T13:26:30.484Z,1.90
2022-09-28T13:29:06.056Z,2.25
2022-09-28T13:31:38.346Z,2.45
2022-09-28T13:34:15.687Z,2.28
2022-09-28T13:36:48.127Z,2.30
2022-09-28T13:39:36.823Z,2.15
2022-09-28T13:42:08.554Z,2.35
2022-09-28T13:44:51.148Z,1.80
2022-09-28T13:47:39.536Z,2.00
2022-09-28T13:50:51.299Z,2.20
2022-09-28T13:53:30.675Z,2.22
2022-09-28T13:56:28.184Z,2.25
2022-09-28T13:59:18.175Z,2.00
2022-09-28T14:02:06.922Z,2.25
2022-09-28T14:05:04.827Z,2.10
2022-09-28T14:07:37.813Z,2.10
2022-09-28T14:10:21.613Z,2.20
2022-09-28T14:12:55.553Z,1.83
2022-09-28T14:15:31.629Z,2.20
2022-09-28T14:18:08.541Z,2.20
2022-09-28T14:20:38.523Z,2.50
2022-09-28T14:23:44.434Z,2.28
2022-09-28T14:26:23.537Z,2.10
2022-09-28T14:29:10.098Z,2.08
2022-09-28T14:31:44.487Z,1.92
2022-09-28T14:34:35.439Z,2.30
2022-09-28T14:37:25.022Z,2.22
2022-09-28T14:40:12.931Z,2.05
2022-09-28T14:42:43.739Z,2.10
2022-09-28T14:45:13.730Z,2.17
2022-09-28T14:47:45.166Z,1.90
2022-09-28T14:50:26.156Z,1.75
2022-09-28T14:53:21.519Z,1.90
2022-09-28T14:55:56.608Z,2.03
2022-09-28T14:58:28.845Z,1.88
2022-09-28T15:01:04.455Z,2.20
2022-09-28T15:03:36.028Z,2.10
2022-09-28T15:06:06.256Z,2.15
2022-09-28T15:08:40.081Z,2.22
2022-09-28T15:11:30.325Z,2.13
2022-09-28T15:14:08.658Z,1.95
2022-09-28T15:16:38.877Z,2.05
2022-09-28T15:19:24.454Z,1.80
2022-09-28T15:21:54.754Z,2.20
2022-09-28T15:24:37.089Z,1.85
2022-09-28T15:27:17.510Z,2.10
2022-09-28T15:30:02.679Z,2.55
2022-09-28T15:32:33.465Z,4.07
2022-09-28T15:35:22.412Z,4.53
2022-09-28T15:37:55.512Z,4.43
2022-09-28T15:40:35.150Z,3.97
2022-09-28T15:43:28.085Z,3.08
2022-09-28T15:46:09.927Z,3.38
2022-09-28T15:48:47.249Z,3.58
2022-09-28T15:51:18.484Z,3.03
2022-09-28T15:54:04.003Z,3.40
2022-09-28T15:56:34.019Z,2.70
2022-09-28T15:59:13.273Z,3.90
2022-09-28T16:01:46.582Z,2.88
2022-09-28T16:07:32.010Z,3.30
2022-09-28T16:10:05.947Z,2.83
2022-09-28T16:12:39.109Z,3.50
2022-09-28T16:15:17.389Z,3.28
2022-09-28T16:18:03.816Z,3.88
2022-09-28T16:20:43.622Z,2.63
2022-09-28T16:23:26.965Z,3.47
2022-09-28T16:26:03.991Z,3.33
2022-09-28T16:28:40.013Z,3.10
2022-09-28T16:31:15.939Z,2.65
2022-09-28T16:33:54.882Z,3.13
2022-09-28T16:36:25.243Z,3.42
2022-09-28T16:38:56.162Z,3.15
2022-09-28T16:41:29.055Z,3.10
2022-09-28T16:44:03.512Z,3.03
2022-09-28T16:46:38.219Z,3.33
2022-09-28T16:49:08.403Z,2.90
2022-09-28T16:51:41.234Z,2.45
2022-09-28T16:54:36.002Z,2.72
2022-09-28T16:57:07.107Z,2.80
2022-09-28T16:59:39.571Z,2.70
2022-09-28T17:02:46.334Z,3.03
2022-09-28T17:05:13.823Z,2.80
2022-09-28T17:07:44.765Z,2.63
2022-09-28T17:10:25.017Z,3.13
2022-09-28T17:12:54.888Z,3.20
2022-09-28T17:15:24.797Z,2.83
2022-09-28T17:17:54.714Z,3.10
2022-09-28T17:20:27.468Z,2.75
2022-09-28T17:22:57.600Z,3.15
2022-09-28T17:25:27.617Z,2.50
2022-09-28T17:27:58.767Z,2.20
2022-09-28T17:30:28.736Z,3.00
2022-09-28T17:33:00.370Z,2.80
2022-09-28T17:35:30.281Z,2.63
2022-09-28T17:38:00.211Z,2.47
2022-09-28T17:40:30.686Z,2.70
2022-09-28T17:43:01.660Z,2.78
2022-09-28T17:45:32.716Z,2.65
2022-09-28T17:48:02.939Z,2.60
2022-09-28T17:50:35.174Z,2.20
2022-09-28T17:53:07.555Z,2.70
2022-09-28T17:55:38.362Z,2.67
2022-09-28T17:58:23.755Z,2.40
2022-09-28T18:00:53.846Z,2.50
2022-09-28T18:03:26.353Z,2.58
2022-09-28T18:06:07.752Z,2.70
2022-09-28T18:08:38.755Z,2.30
2022-09-28T18:11:08.346Z,2.53
2022-09-28T18:13:38.206Z,2.28
2022-09-28T18:16:07.876Z,2.25
2022-09-28T18:18:40.991Z,2.08
2022-09-28T18:21:11.163Z,2.70
2022-09-28T18:23:40.716Z,1.92
2022-09-28T18:26:16.814Z,2.10
2022-09-28T18:28:46.014Z,2.03
2022-09-28T18:31:16.158Z,2.00
2022-09-28T18:33:45.359Z,2.50
2022-09-28T18:36:14.659Z,2.30
2022-09-28T18:38:43.912Z,2.17
2022-09-28T18:41:17.809Z,2.42
2022-09-28T18:43:50.562Z,2.40
2022-09-28T18:46:20.116Z,2.30
2022-09-28T18:48:49.704Z,2.08
2022-09-28T18:51:18.883Z,2.25
2022-09-28T18:53:48.422Z,2.25
2022-09-28T18:56:19.359Z,2.00
2022-09-28T18:58:49.014Z,1.90
2022-09-28T19:01:35.441Z,2.28
2022-09-28T19:04:07.073Z,2.13
2022-09-28T19:06:41.104Z,2.22
2022-09-28T19:09:12.275Z,2.20
2022-09-28T19:11:42.423Z,2.05
2022-09-28T19:14:12.699Z,2.20
2022-09-28T19:16:43.668Z,1.70
2022-09-28T19:19:15.406Z,1.92
2022-09-28T19:21:45.722Z,2.05
2022-09-28T19:24:16.685Z,2.00
2022-09-28T19:26:47.832Z,2.10
2022-09-28T19:29:18.323Z,2.05
2022-09-28T19:31:49.032Z,1.85
2022-09-28T19:34:19.732Z,2.05
2022-09-28T19:36:50.189Z,1.85
2022-09-28T19:39:20.396Z,1.95
2022-09-28T19:41:53.760Z,2.00
2022-09-28T19:46:58.411Z,1.90
2022-09-28T19:49:34.185Z,1.90
2022-09-28T19:52:13.883Z,1.88
2022-09-28T19:54:46.125Z,2.00
2022-09-28T19:57:17.028Z,1.92
2022-09-28T19:59:52.026Z,1.67
2022-09-28T20:02:23.428Z,1.98
2022-09-28T20:04:53.354Z,1.77
2022-09-28T20:07:23.743Z,2.03
2022-09-28T20:09:53.919Z,2.20
2022-09-28T20:12:24.338Z,1.70
2022-09-28T20:14:54.282Z,1.90
2022-09-28T20:17:25.153Z,2.00
2022-09-28T20:19:55.396Z,1.60
2022-09-28T20:22:25.465Z,1.80
2022-09-28T20:24:55.422Z,1.85
2022-09-28T20:27:27.764Z,1.83
2022-09-28T20:29:57.800Z,2.17
2022-09-28T20:32:28.278Z,1.77
2022-09-28T20:34:58.176Z,1.48
2022-09-28T20:37:28.145Z,2.25
2022-09-28T20:39:59.099Z,1.80
2022-09-28T20:42:30.045Z,1.60
2022-09-28T20:45:00.169Z,1.80
2022-09-28T20:47:30.734Z,1.65
2022-09-28T20:50:00.631Z,1.70
2022-09-28T20:52:30.583Z,1.60
2022-09-28T20:55:00.507Z,1.70
2022-09-28T20:57:30.537Z,1.65
2022-09-28T21:00:00.438Z,2.17
2022-09-28T21:02:30.428Z,1.58
2022-09-28T21:05:00.323Z,1.60
2022-09-28T21:07:30.288Z,1.50
2022-09-28T21:10:00.604Z,1.58
2022-09-28T21:12:30.692Z,1.73
2022-09-28T21:15:04.993Z,1.75
2022-09-28T21:17:35.868Z,1.75
2022-09-28T21:20:06.100Z,1.67
2022-09-28T21:22:36.311Z,1.63
2022-09-28T21:25:07.105Z,1.73
2022-09-28T21:27:37.066Z,1.70
2022-09-28T21:30:07.628Z,1.30
2022-09-28T21:32:37.578Z,1.70
2022-09-28T21:35:07.988Z,1.73
2022-09-28T21:37:37.909Z,1.45
2022-09-28T21:40:10.925Z,1.77
2022-09-28T21:42:40.860Z,1.80
2022-09-28T21:45:11.339Z,1.45
2022-09-28T21:47:42.518Z,1.45
2022-09-28T21:50:12.434Z,1.50
2022-09-28T21:52:42.478Z,1.73
2022-09-28T21:55:13.941Z,1.63
2022-09-28T21:57:44.054Z,1.70
2022-09-28T22:00:15.554Z,1.48
2022-09-28T22:02:45.896Z,1.95
2022-09-28T22:05:15.948Z,1.50
2022-09-28T22:07:46.106Z,1.55
2022-09-28T22:10:16.510Z,1.60
2022-09-28T22:12:46.833Z,1.40
2022-09-28T22:15:16.844Z,1.60
2022-09-28T22:17:46.864Z,1.80
2022-09-28T22:20:16.922Z,1.55
2022-09-28T22:22:52.037Z,1.10
2022-09-28T22:25:22.022Z,1.30
2022-09-28T22:27:51.946Z,1.40
2022-09-28T22:30:21.878Z,1.50
2022-09-28T22:32:51.842Z,1.83
2022-09-28T22:35:21.748Z,1.63
2022-09-28T22:37:51.678Z,1.33
2022-09-28T22:40:21.765Z,1.50
2022-09-28T22:42:51.718Z,1.45
2022-09-28T22:45:21.796Z,1.40
2022-09-28T22:47:51.775Z,1.27
2022-09-28T22:50:21.750Z,1.70
2022-09-28T22:52:52.231Z,1.40
2022-09-28T22:55:22.232Z,1.40
2022-09-28T22:57:52.271Z,1.70
2022-09-28T23:00:22.343Z,1.30
2022-09-28T23:02:52.374Z,1.60
2022-09-28T23:05:22.333Z,1.70
2022-09-28T23:07:52.281Z,1.92
2022-09-28T23:10:22.258Z,1.40
2022-09-28T23:12:52.151Z,1.60
2022-09-28T23:15:22.805Z,1.27
2022-09-28T23:17:53.892Z,1.38
2022-09-28T23:20:23.782Z,1.20
2022-09-28T23:22:53.798Z,1.50
2022-09-28T23:25:23.744Z,1.50
2022-09-28T23:27:53.688Z,1.20
2022-09-28T23:30:24.221Z,1.30
2022-09-28T23:32:54.664Z,1.80
2022-09-28T23:35:25.026Z,1.40
2022-09-28T23:37:55.149Z,1.52
2022-09-28T23:40:25.261Z,1.35
2022-09-28T23:42:55.330Z,1.40
2022-09-28T23:45:26.417Z,1.38
2022-09-28T23:47:56.331Z,1.30
2022-09-28T23:50:26.284Z,1.63
2022-09-28T23:52:56.422Z,1.95
2022-09-28T23:55:26.442Z,1.38
2022-09-28T23:57:57.857Z,1.45
